Time,TemperatureF,DewpointF,PressureIn,WindDirection,WindDirectionDegrees,WindSpeedMPH,WindSpeedGustMPH,Humidity,HourlyPrecipIn,Conditions,Clouds,dailyrainin,SoftwareType,DateUTC
2013-01-20 00:04:00,41.5,37.9,30.21,SW,221,0.0,0.0,87,0.00,CLR,,0.00,WeatherDisplay:10.37,2013-01-20 06:04:00,
2013-01-20 00:09:00,41.5,37.9,30.21,SW,221,0.0,0.0,87,0.00,CLR,,0.00,WeatherDisplay:10.37,2013-01-20 06:09:00,
2013-01-20 00:14:00,41.5,37.9,30.21,SW,221,0.0,0.0,87,0.00,CLR,,0.00,WeatherDisplay:10.37,2013-01-20 06:14:00,
2013-01-20 00:19:00,41.4,37.8,30.21,SW,221,0.0,0.0,87,0.00,CLR,,0.00,WeatherDisplay:10.37,2013-01-20 06:19:00,
2013-01-20 00:24:00,41.1,37.5,30.21,SW,221,0.0,0.0,87,0.00,CLR,,0.00,WeatherDisplay:10.37,2013-01-20 06:24:00,
2013-01-20 00:29:00,40.9,37.3,30.20,SW,221,0.0,0.0,87,0.00,CLR,,0.00,WeatherDisplay:10.37,2013-01-20 06:29:00,
2013-01-20 00:34:00,40.7,37.1,30.20,SW,221,0.0,0.0,87,0.00,CLR,,0.00,WeatherDisplay:10.37,2013-01-20 06:34:00,
2013-01-20 00:39:00,40.7,37.4,30.20,SW,221,0.0,0.0,88,0.00,CLR,,0.00,WeatherDisplay:10.37,2013-01-20 06:39:00,
2013-01-20 00:44:00,40.7,37.4,30.20,SW,221,0.0,0.0,88,0.00,CLR,,0.00,WeatherDisplay:10.37,2013-01-20 06:44:00,
2013-01-20 00:49:00,40.7,37.4,30.20,SW,221,0.0,0.0,88,0.00,CLR,,0.00,WeatherDisplay:10.37,2013-01-20 06:49:00,
2013-01-20 00:54:00,40.6,37.3,30.20,SW,221,0.0,0.0,88,0.00,CLR,,0.00,WeatherDisplay:10.37,2013-01-20 06:54:00,
2013-01-20 00:59:00,40.5,37.2,30.20,SW,221,0.0,0.0,88,0.00,CLR,,0.00,WeatherDisplay:10.37,2013-01-20 06:59:00,
2013-01-20 01:04:00,40.4,37.4,30.20,SW,221,0.0,0.0,89,0.00,CLR,,0.00,WeatherDisplay:10.37,2013-01-20 07:04:00,
2013-01-20 01:09:00,40.4,37.4,30.20,SW,221,0.0,0.0,89,0.00,CLR,,0.00,WeatherDisplay:10.37,2013-01-20 07:09:00,
2013-01-20 01:14:00,40.4,37.4,30.20,SW,221,0.0,0.0,89,0.00,CLR,,0.00,WeatherDisplay:10.37,2013-01-20 07:14:00,
2013-01-20 01:19:00,40.4,37.4,30.20,SW,221,0.0,0.0,89,0.00,CLR,,0.00,WeatherDisplay:10.37,2013-01-20 07:19:00,
2013-01-20 01:24:00,40.4,37.4,30.20,SW,221,0.0,0.0,89,0.00,CLR,,0.00,WeatherDisplay:10.37,2013-01-20 07:24:00,
2013-01-20 01:29:00,40.4,37.4,30.20,SW,221,0.0,0.0,89,0.00,CLR,,0.00,WeatherDisplay:10.37,2013-01-20 07:29:00,
2013-01-20 01:34:00,40.3,37.3,30.20,SW,221,0.0,0.0,89,0.00,CLR,,0.00,WeatherDisplay:10.37,2013-01-20 07:34:00,
2013-01-20 01:39:00,40.2,37.2,30.20,SW,221,0.0,0.0,89,0.00,CLR,,0.00,WeatherDisplay:10.37,2013-01-20 07:39:00,
2013-01-20 01:44:00,40.0,37.0,30.20,SW,221,0.0,0.0,89,0.00,CLR,,0.00,WeatherDisplay:10.37,2013-01-20 07:44:00,
2013-01-20 01:49:00,39.8,36.8,30.20,SW,221,0.0,0.0,89,0.00,CLR,,0.00,WeatherDisplay:10.37,2013-01-20 07:49:00,
2013-01-20 01:54:00,39.8,36.8,30.20,SW,221,0.0,0.0,89,0.00,CLR,,0.00,WeatherDisplay:10.37,2013-01-20 07:54:00,
2013-01-20 01:59:00,39.7,36.7,30.20,SW,221,0.0,0.0,89,0.00,CLR,,0.00,WeatherDisplay:10.37,2013-01-20 07:59:00,
2013-01-20 02:04:00,39.6,36.6,30.20,SW,221,0.0,0.0,89,0.00,CLR,,0.00,WeatherDisplay:10.37,2013-01-20 08:04:00,
2013-01-20 02:09:00,39.4,36.4,30.20,SW,221,0.0,0.0,89,0.00,CLR,,0.00,WeatherDisplay:10.37,2013-01-20 08:09:00,
2013-01-20 02:14:00,39.3,36.3,30.20,SW,221,0.0,0.0,89,0.00,CLR,,0.00,WeatherDisplay:10.37,2013-01-20 08:14:00,
2013-01-20 02:19:00,39.4,36.7,30.19,SW,221,0.0,0.0,90,0.00,CLR,,0.00,WeatherDisplay:10.37,2013-01-20 08:19:00,
2013-01-20 02:24:00,39.4,36.7,30.20,SW,221,0.0,0.0,90,0.00,CLR,,0.00,WeatherDisplay:10.37,2013-01-20 08:24:00,
2013-01-20 02:29:00,39.5,36.8,30.19,SW,221,0.0,0.0,90,0.00,CLR,,0.00,WeatherDisplay:10.37,2013-01-20 08:29:00,
2013-01-20 02:34:00,39.5,36.8,30.19,SW,221,0.0,0.0,90,0.00,CLR,,0.00,WeatherDisplay:10.37,2013-01-20 08:34:00,
2013-01-20 02:39:00,39.4,36.7,30.19,SW,221,0.0,0.0,90,0.00,CLR,,0.00,WeatherDisplay:10.37,2013-01-20 08:39:00,
2013-01-20 02:44:00,39.4,37.0,30.19,SW,221,0.0,0.0,91,0.00,CLR,,0.00,WeatherDisplay:10.37,2013-01-20 08:44:00,
2013-01-20 02:49:00,39.3,36.9,30.19,SW,221,0.0,0.0,91,0.00,CLR,,0.00,WeatherDisplay:10.37,2013-01-20 08:49:00,
2013-01-20 02:54:00,39.3,36.6,30.18,SW,221,0.0,0.0,90,0.00,CLR,,0.00,WeatherDisplay:10.37,2013-01-20 08:54:00,
2013-01-20 02:59:00,39.1,36.4,30.18,SW,221,0.0,0.0,90,0.00,CLR,,0.00,WeatherDisplay:10.37,2013-01-20 08:59:00,
2013-01-20 03:04:00,39.0,36.3,30.18,SW,221,0.0,0.0,90,0.00,CLR,,0.00,WeatherDisplay:10.37,2013-01-20 09:04:00,
2013-01-20 03:09:00,38.9,36.2,30.18,SW,221,0.0,0.0,90,0.00,CLR,,0.00,WeatherDisplay:10.37,2013-01-20 09:09:00,
2013-01-20 03:14:00,38.8,36.4,30.18,SW,221,0.0,0.0,91,0.00,CLR,,0.00,WeatherDisplay:10.37,2013-01-20 09:14:00,
2013-01-20 03:19:00,38.8,36.4,30.18,SW,221,0.0,0.0,91,0.00,CLR,,0.00,WeatherDisplay:10.37,2013-01-20 09:19:00,
2013-01-20 03:24:00,38.8,36.4,30.18,SW,221,0.0,0.0,91,0.00,CLR,,0.00,WeatherDisplay:10.37,2013-01-20 09:24:00,
2013-01-20 03:29:00,38.8,36.4,30.18,SW,221,0.0,0.0,91,0.00,CLR,,0.00,WeatherDisplay:10.37,2013-01-20 09:29:00,
2013-01-20 03:34:00,38.7,36.3,30.18,SW,221,0.0,0.0,91,0.00,CLR,,0.00,WeatherDisplay:10.37,2013-01-20 09:34:00,
2013-01-20 03:39:00,38.6,36.2,30.18,SW,221,0.0,0.0,91,0.00,CLR,,0.00,WeatherDisplay:10.37,2013-01-20 09:39:00,
2013-01-20 03:44:00,38.4,36.0,30.18,SW,221,0.0,0.0,91,0.00,CLR,,0.00,WeatherDisplay:10.37,2013-01-20 09:44:00,
2013-01-20 03:49:00,38.3,35.9,30.18,SW,221,0.0,0.0,91,0.00,CLR,,0.00,WeatherDisplay:10.37,2013-01-20 09:49:00,
2013-01-20 03:54:00,38.3,35.9,30.17,SW,221,0.0,0.0,91,0.00,CLR,,0.00,WeatherDisplay:10.37,2013-01-20 09:54:00,
2013-01-20 03:59:00,38.3,35.9,30.17,SW,221,0.0,0.0,91,0.00,CLR,,0.00,WeatherDisplay:10.37,2013-01-20 09:59:00,
2013-01-20 04:04:00,38.3,35.9,30.17,SW,221,0.0,0.0,91,0.00,CLR,,0.00,WeatherDisplay:10.37,2013-01-20 10:04:00,
2013-01-20 04:09:00,38.3,35.9,30.17,SW,221,0.0,0.0,91,0.00,CLR,,0.00,WeatherDisplay:10.37,2013-01-20 10:09:00,
2013-01-20 04:14:00,38.3,36.2,30.17,SW,221,0.0,0.0,92,0.00,CLR,,0.00,WeatherDisplay:10.37,2013-01-20 10:14:00,
2013-01-20 04:19:00,38.3,36.2,30.17,SW,221,0.0,0.0,92,0.00,CLR,,0.00,WeatherDisplay:10.37,2013-01-20 10:19:00,
2013-01-20 04:24:00,38.2,36.1,30.17,SW,221,0.0,0.0,92,0.00,CLR,,0.00,WeatherDisplay:10.37,2013-01-20 10:24:00,
2013-01-20 04:29:00,38.2,36.1,30.17,SW,221,0.0,0.0,92,0.00,CLR,,0.00,WeatherDisplay:10.37,2013-01-20 10:29:00,
2013-01-20 04:34:00,38.2,36.1,30.17,SW,221,0.0,0.0,92,0.00,CLR,,0.00,WeatherDisplay:10.37,2013-01-20 10:34:00,
2013-01-20 04:39:00,38.1,36.0,30.17,SW,221,0.0,0.0,92,0.00,CLR,,0.00,WeatherDisplay:10.37,2013-01-20 10:39:00,
2013-01-20 04:44:00,38.1,36.0,30.17,SW,221,0.0,0.0,92,0.00,CLR,,0.00,WeatherDisplay:10.37,2013-01-20 10:44:00,
2013-01-20 04:49:00,38.2,36.1,30.17,SW,221,0.0,0.0,92,0.00,CLR,,0.00,WeatherDisplay:10.37,2013-01-20 10:49:00,
2013-01-20 04:54:00,38.4,36.3,30.17,SW,221,0.0,0.0,92,0.00,CLR,,0.00,WeatherDisplay:10.37,2013-01-20 10:54:00,
2013-01-20 04:59:00,38.4,36.3,30.17,SW,221,0.0,0.0,92,0.00,CLR,,0.00,WeatherDisplay:10.37,2013-01-20 10:59:00,
2013-01-20 05:04:00,38.4,36.3,30.17,SW,221,0.0,0.0,92,0.00,CLR,,0.00,WeatherDisplay:10.37,2013-01-20 11:04:00,
2013-01-20 05:09:00,38.4,36.3,30.17,SW,221,0.0,0.0,92,0.00,CLR,,0.00,WeatherDisplay:10.37,2013-01-20 11:09:00,
2013-01-20 05:14:00,38.3,36.2,30.17,SW,221,0.0,0.0,92,0.00,CLR,,0.00,WeatherDisplay:10.37,2013-01-20 11:14:00,
2013-01-20 05:19:00,38.2,36.1,30.16,SW,221,0.0,0.0,92,0.00,CLR,,0.00,WeatherDisplay:10.37,2013-01-20 11:19:00,
2013-01-20 05:24:00,38.3,36.5,30.16,SW,221,0.0,0.0,93,0.00,CLR,,0.00,WeatherDisplay:10.37,2013-01-20 11:24:00,
2013-01-20 05:29:00,38.4,36.6,30.16,SW,221,0.0,0.0,93,0.00,CLR,,0.00,WeatherDisplay:10.37,2013-01-20 11:29:00,
2013-01-20 05:34:00,38.3,36.5,30.16,SW,221,0.0,0.0,93,0.00,CLR,,0.00,WeatherDisplay:10.37,2013-01-20 11:34:00,
2013-01-20 05:39:00,38.3,36.5,30.16,SW,221,0.0,0.0,93,0.00,CLR,,0.00,WeatherDisplay:10.37,2013-01-20 11:39:00,
2013-01-20 05:44:00,38.1,36.0,30.16,SW,221,0.0,0.0,92,0.00,CLR,,0.00,WeatherDisplay:10.37,2013-01-20 11:44:00,
2013-01-20 05:49:00,37.9,36.1,30.16,SW,221,0.0,0.0,93,0.00,CLR,,0.00,WeatherDisplay:10.37,2013-01-20 11:49:00,
2013-01-20 05:54:00,38.0,36.2,30.16,SW,221,0.0,0.0,93,0.00,CLR,,0.00,WeatherDisplay:10.37,2013-01-20 11:54:00,
2013-01-20 05:59:00,38.0,36.2,30.17,SW,221,0.0,0.0,93,0.00,CLR,,0.00,WeatherDisplay:10.37,2013-01-20 11:59:00,
2013-01-20 06:04:00,38.0,36.2,30.16,SW,221,0.0,0.0,93,0.00,CLR,,0.00,WeatherDisplay:10.37,2013-01-20 12:04:00,
2013-01-20 06:09:00,38.0,36.2,30.17,SW,221,0.0,0.0,93,0.00,CLR,,0.00,WeatherDisplay:10.37,2013-01-20 12:09:00,
2013-01-20 06:14:00,37.9,36.1,30.17,SW,221,0.0,0.0,93,0.00,CLR,,0.00,WeatherDisplay:10.37,2013-01-20 12:14:00,
2013-01-20 06:19:00,37.8,36.0,30.17,SW,221,0.0,0.0,93,0.00,CLR,,0.00,WeatherDisplay:10.37,2013-01-20 12:19:00,
2013-01-20 06:24:00,37.7,35.9,30.17,SW,221,0.0,0.0,93,0.00,CLR,,0.00,WeatherDisplay:10.37,2013-01-20 12:24:00,
2013-01-20 06:29:00,37.6,35.8,30.17,SW,221,0.0,0.0,93,0.00,CLR,,0.00,WeatherDisplay:10.37,2013-01-20 12:29:00,
2013-01-20 06:34:00,37.4,35.6,30.17,SW,221,0.0,0.0,93,0.00,CLR,,0.00,WeatherDisplay:10.37,2013-01-20 12:34:00,
2013-01-20 06:39:00,37.3,35.5,30.17,SW,221,0.0,0.0,93,0.00,CLR,,0.00,WeatherDisplay:10.37,2013-01-20 12:39:00,
2013-01-20 06:44:00,37.3,35.5,30.17,SW,221,0.0,0.0,93,0.00,CLR,,0.00,WeatherDisplay:10.37,2013-01-20 12:44:00,
2013-01-20 06:49:00,37.3,35.5,30.18,SW,221,0.0,0.0,93,0.00,CLR,,0.00,WeatherDisplay:10.37,2013-01-20 12:49:00,
2013-01-20 06:54:00,37.3,35.5,30.18,SW,221,0.0,0.0,93,0.00,CLR,,0.00,WeatherDisplay:10.37,2013-01-20 12:54:00,
2013-01-20 06:59:00,37.2,35.4,30.18,SW,221,0.0,0.0,93,0.00,CLR,,0.00,WeatherDisplay:10.37,2013-01-20 12:59:00,
2013-01-20 07:04:00,37.1,35.3,30.18,SW,221,0.0,0.0,93,0.00,CLR,,0.00,WeatherDisplay:10.37,2013-01-20 13:04:00,
2013-01-20 07:09:00,37.1,35.3,30.18,SW,221,0.0,0.0,93,0.00,CLR,,0.00,WeatherDisplay:10.37,2013-01-20 13:09:00,
2013-01-20 07:14:00,37.0,35.2,30.18,SW,221,0.0,0.0,93,0.00,CLR,,0.00,WeatherDisplay:10.37,2013-01-20 13:14:00,
2013-01-20 07:19:00,37.0,35.2,30.18,SW,221,0.0,0.0,93,0.00,CLR,,0.00,WeatherDisplay:10.37,2013-01-20 13:19:00,
2013-01-20 07:24:00,36.9,35.1,30.19,SW,221,0.0,0.0,93,0.00,CLR,,0.00,WeatherDisplay:10.37,2013-01-20 13:24:00,
2013-01-20 07:29:00,36.9,35.1,30.19,SW,221,0.0,0.0,93,0.00,CLR,,0.00,WeatherDisplay:10.37,2013-01-20 13:29:00,
2013-01-20 07:34:00,36.8,35.0,30.19,SW,221,0.0,0.0,93,0.00,CLR,,0.00,WeatherDisplay:10.37,2013-01-20 13:34:00,
2013-01-20 07:39:00,36.8,35.0,30.19,SW,221,0.0,0.0,93,0.00,CLR,,0.00,WeatherDisplay:10.37,2013-01-20 13:39:00,
2013-01-20 07:44:00,36.6,34.8,30.19,SW,221,0.0,0.0,93,0.00,CLR,,0.00,WeatherDisplay:10.37,2013-01-20 13:44:00,
2013-01-20 07:49:00,36.4,34.6,30.20,SW,221,0.0,0.0,93,0.00,CLR,,0.00,WeatherDisplay:10.37,2013-01-20 13:49:00,
2013-01-20 07:54:00,36.4,34.6,30.20,SW,221,0.0,0.0,93,0.00,CLR,,0.00,WeatherDisplay:10.37,2013-01-20 13:54:00,
2013-01-20 07:59:00,36.6,34.8,30.20,SW,221,0.0,0.0,93,0.00,CLR,,0.00,WeatherDisplay:10.37,2013-01-20 13:59:00,
2013-01-20 08:04:00,37.1,35.5,30.20,SW,221,0.0,0.0,94,0.00,CLR,,0.00,WeatherDisplay:10.37,2013-01-20 14:04:00,
2013-01-20 08:09:00,37.5,35.9,30.20,SW,221,0.0,0.0,94,0.00,CLR,,0.00,WeatherDisplay:10.37,2013-01-20 14:09:00,
2013-01-20 08:14:00,37.7,36.1,30.20,SW,221,0.0,0.0,94,0.00,CLR,,0.00,WeatherDisplay:10.37,2013-01-20 14:14:00,
2013-01-20 08:19:00,37.9,36.3,30.20,SW,221,0.0,0.0,94,0.00,CLR,,0.00,WeatherDisplay:10.37,2013-01-20 14:19:00,
2013-01-20 08:24:00,38.4,36.8,30.21,SW,221,0.0,0.0,94,0.00,CLR,,0.00,WeatherDisplay:10.37,2013-01-20 14:24:00,
2013-01-20 08:29:00,39.2,37.9,30.20,SW,221,0.0,0.0,95,0.00,,,0.00,WeatherDisplay:10.37,2013-01-20 14:29:00,
2013-01-20 08:34:00,39.9,38.6,30.21,SW,221,0.0,0.0,95,0.00,,,0.00,WeatherDisplay:10.37,2013-01-20 14:34:00,
2013-01-20 08:39:00,40.2,38.9,30.21,SW,221,0.0,0.0,95,0.00,,,0.00,WeatherDisplay:10.37,2013-01-20 14:39:00,
2013-01-20 08:44:00,40.7,39.4,30.21,SW,221,0.0,0.0,95,0.00,,,0.00,WeatherDisplay:10.37,2013-01-20 14:44:00,
2013-01-20 08:49:00,41.5,40.2,30.21,SW,221,0.0,0.0,95,0.00,,,0.00,WeatherDisplay:10.37,2013-01-20 14:49:00,
2013-01-20 08:54:00,42.0,40.7,30.21,SW,221,0.0,0.0,95,0.00,,,0.00,WeatherDisplay:10.37,2013-01-20 14:54:00,
2013-01-20 08:59:00,42.7,41.4,30.21,SW,221,0.0,0.0,95,0.00,,,0.00,WeatherDisplay:10.37,2013-01-20 14:59:00,
2013-01-20 09:04:00,43.4,42.1,30.22,SW,221,0.0,0.0,95,0.00,,,0.00,WeatherDisplay:10.37,2013-01-20 15:04:00,
2013-01-20 09:09:00,44.1,43.0,30.21,SW,221,0.0,0.0,96,0.00,,,0.00,WeatherDisplay:10.37,2013-01-20 15:09:00,
2013-01-20 09:14:00,44.8,43.7,30.22,SW,221,0.0,0.0,96,0.00,,,0.00,WeatherDisplay:10.37,2013-01-20 15:14:00,
2013-01-20 09:19:00,45.6,44.5,30.22,SW,221,0.0,0.0,96,0.00,,,0.00,WeatherDisplay:10.37,2013-01-20 15:19:00,
2013-01-20 09:24:00,46.4,45.3,30.22,SW,221,0.0,0.0,96,0.00,,,0.00,WeatherDisplay:10.37,2013-01-20 15:24:00,
2013-01-20 09:29:00,47.2,46.1,30.22,SW,221,0.0,0.0,96,0.00,,,0.00,WeatherDisplay:10.37,2013-01-20 15:29:00,
2013-01-20 09:34:00,48.0,46.9,30.22,SW,221,0.0,0.0,96,0.00,,,0.00,WeatherDisplay:10.37,2013-01-20 15:34:00,
2013-01-20 09:39:00,48.9,47.8,30.21,SW,221,0.0,0.0,96,0.00,CLR,,0.00,WeatherDisplay:10.37,2013-01-20 15:39:00,
2013-01-20 09:44:00,49.9,48.8,30.22,SW,221,0.0,0.0,96,0.00,CLR,,0.00,WeatherDisplay:10.37,2013-01-20 15:44:00,
2013-01-20 09:49:00,50.5,49.4,30.22,SW,226,0.9,3.5,96,0.00,CLR,,0.00,WeatherDisplay:10.37,2013-01-20 15:49:00,
2013-01-20 09:54:00,51.2,50.1,30.22,SW,227,0.1,1.2,96,0.00,CLR,,0.00,WeatherDisplay:10.37,2013-01-20 15:54:00,
2013-01-20 09:59:00,51.7,50.6,30.22,SSW,204,0.0,0.0,96,0.00,CLR,,0.00,WeatherDisplay:10.37,2013-01-20 15:59:00,
2013-01-20 10:04:00,52.2,51.1,30.22,SSW,204,0.0,0.0,96,0.00,CLR,,0.00,WeatherDisplay:10.37,2013-01-20 16:04:00,
2013-01-20 10:09:00,52.8,51.7,30.22,WNW,286,0.8,3.5,96,0.00,CLR,,0.00,WeatherDisplay:10.37,2013-01-20 16:09:00,
2013-01-20 10:14:00,53.7,52.6,30.23,WSW,250,0.7,3.5,96,0.00,CLR,,0.00,WeatherDisplay:10.37,2013-01-20 16:14:00,
2013-01-20 10:19:00,54.4,53.3,30.22,WNW,283,1.1,3.5,96,0.00,CLR,,0.00,WeatherDisplay:10.37,2013-01-20 16:19:00,
2013-01-20 10:24:00,55.0,53.9,30.22,NW,304,1.6,4.0,96,0.00,CLR,,0.00,WeatherDisplay:10.37,2013-01-20 16:24:00,
2013-01-20 10:29:00,55.7,54.3,30.22,NNW,330,2.3,4.6,95,0.00,CLR,,0.00,WeatherDisplay:10.37,2013-01-20 16:29:00,
2013-01-20 10:34:00,56.3,54.6,30.22,WSW,242,1.4,8.0,94,0.00,CLR,,0.00,WeatherDisplay:10.37,2013-01-20 16:34:00,
2013-01-20 10:39:00,56.8,54.5,30.22,WNW,300,1.8,3.5,92,0.00,CLR,,0.00,WeatherDisplay:10.37,2013-01-20 16:39:00,
2013-01-20 10:44:00,57.2,54.6,30.22,WSW,257,3.5,8.1,91,0.00,CLR,,0.00,WeatherDisplay:10.37,2013-01-20 16:44:00,
2013-01-20 10:49:00,57.7,54.5,30.22,South,175,0.4,6.9,89,0.00,CLR,,0.00,WeatherDisplay:10.37,2013-01-20 16:49:00,
2013-01-20 10:54:00,58.2,54.7,30.22,WSW,240,1.9,3.5,88,0.00,CLR,,0.00,WeatherDisplay:10.37,2013-01-20 16:54:00,
2013-01-20 10:59:00,58.7,54.5,30.22,SW,220,2.5,6.0,86,0.00,CLR,,0.00,WeatherDisplay:10.37,2013-01-20 16:59:00,
2013-01-20 11:04:00,59.0,54.5,30.22,SW,223,2.0,4.6,85,0.00,CLR,,0.00,WeatherDisplay:10.37,2013-01-20 17:04:00,
2013-01-20 11:09:00,59.4,54.6,30.21,SSW,202,1.9,4.6,84,0.00,CLR,,0.00,WeatherDisplay:10.37,2013-01-20 17:09:00,
2013-01-20 11:14:00,59.7,54.5,30.21,WSW,252,3.2,4.6,83,0.00,CLR,,0.00,WeatherDisplay:10.37,2013-01-20 17:14:00,
2013-01-20 11:19:00,59.8,54.6,30.20,West,265,1.7,4.6,83,0.00,CLR,,0.00,WeatherDisplay:10.37,2013-01-20 17:19:00,
2013-01-20 11:24:00,60.0,54.8,30.20,SW,236,0.9,3.5,83,0.00,CLR,,0.00,WeatherDisplay:10.37,2013-01-20 17:24:00,
2013-01-20 11:29:00,60.2,54.7,30.20,WSW,249,1.1,3.5,82,0.00,CLR,,0.00,WeatherDisplay:10.37,2013-01-20 17:29:00,
2013-01-20 11:34:00,60.4,54.9,30.20,NNW,329,3.4,5.8,82,0.00,CLR,,0.00,WeatherDisplay:10.37,2013-01-20 17:34:00,
2013-01-20 11:39:00,60.6,55.1,30.20,SW,224,1.1,3.5,82,0.00,CLR,,0.00,WeatherDisplay:10.37,2013-01-20 17:39:00,
2013-01-20 11:44:00,60.8,54.9,30.20,WNW,288,1.8,3.5,81,0.00,CLR,,0.00,WeatherDisplay:10.37,2013-01-20 17:44:00,
2013-01-20 11:49:00,61.1,55.2,30.19,WNW,302,1.8,3.5,81,0.00,CLR,,0.00,WeatherDisplay:10.37,2013-01-20 17:49:00,
2013-01-20 11:54:00,61.3,55.1,30.19,SSW,207,0.3,2.3,80,0.00,CLR,,0.00,WeatherDisplay:10.37,2013-01-20 17:54:00,
2013-01-20 11:59:00,61.7,55.5,30.19,SSW,212,0.9,3.5,80,0.00,CLR,,0.00,WeatherDisplay:10.37,2013-01-20 17:59:00,
2013-01-20 12:04:00,62.1,55.5,30.18,South,180,0.7,3.5,79,0.00,CLR,,0.00,WeatherDisplay:10.37,2013-01-20 18:04:00,
2013-01-20 12:09:00,62.4,55.4,30.18,WNW,289,0.1,1.2,78,0.00,CLR,,0.00,WeatherDisplay:10.37,2013-01-20 18:09:00,
2013-01-20 12:14:00,62.7,55.4,30.17,SSW,198,0.5,3.0,77,0.00,CLR,,0.00,WeatherDisplay:10.37,2013-01-20 18:14:00,
2013-01-20 12:19:00,63.2,55.5,30.17,South,179,0.4,3.5,76,0.00,CLR,,0.00,WeatherDisplay:10.37,2013-01-20 18:19:00,
2013-01-20 12:24:00,63.5,55.1,30.17,SW,224,0.3,1.2,74,0.00,CLR,,0.00,WeatherDisplay:10.37,2013-01-20 18:24:00,
2013-01-20 12:29:00,63.8,55.0,30.16,SSE,163,0.3,1.2,73,0.00,CLR,,0.00,WeatherDisplay:10.37,2013-01-20 18:29:00,
2013-01-20 12:34:00,64.0,55.2,30.16,West,276,2.0,6.9,73,0.00,CLR,,0.00,WeatherDisplay:10.37,2013-01-20 18:34:00,
2013-01-20 12:39:00,64.3,54.7,30.15,West,273,1.8,3.5,71,0.00,CLR,,0.00,WeatherDisplay:10.37,2013-01-20 18:39:00,
2013-01-20 12:44:00,64.5,54.5,30.15,SW,217,1.4,4.6,70,0.00,CLR,,0.00,WeatherDisplay:10.37,2013-01-20 18:44:00,
2013-01-20 12:49:00,64.8,54.8,30.15,SW,215,1.2,3.5,70,0.00,CLR,,0.00,WeatherDisplay:10.37,2013-01-20 18:49:00,
2013-01-20 12:54:00,65.2,55.2,30.14,South,179,1.3,3.5,70,0.00,CLR,,0.00,WeatherDisplay:10.37,2013-01-20 18:54:00,
2013-01-20 12:59:00,65.4,54.6,30.14,West,264,0.5,1.2,68,0.00,CLR,,0.00,WeatherDisplay:10.37,2013-01-20 18:59:00,
2013-01-20 13:04:00,65.7,54.4,30.13,NNW,329,1.8,4.6,67,0.00,CLR,,0.00,WeatherDisplay:10.37,2013-01-20 19:04:00,
2013-01-20 13:09:00,65.9,52.9,30.13,SW,227,1.0,3.5,63,0.00,CLR,,0.00,WeatherDisplay:10.37,2013-01-20 19:09:00,
2013-01-20 13:14:00,66.1,54.0,30.12,South,177,1.8,3.5,65,0.00,CLR,,0.00,WeatherDisplay:10.37,2013-01-20 19:14:00,
2013-01-20 13:19:00,66.3,52.9,30.12,WNW,290,0.7,3.5,62,0.00,CLR,,0.00,WeatherDisplay:10.37,2013-01-20 19:19:00,
2013-01-20 13:24:00,66.5,53.1,30.11,NW,317,2.2,3.5,62,0.00,CLR,,0.00,WeatherDisplay:10.37,2013-01-20 19:24:00,
2013-01-20 13:29:00,66.8,53.4,30.11,West,277,0.8,3.5,62,0.00,CLR,,0.00,WeatherDisplay:10.37,2013-01-20 19:29:00,
2013-01-20 13:34:00,67.1,53.6,30.10,SW,223,1.2,3.5,62,0.00,CLR,,0.00,WeatherDisplay:10.37,2013-01-20 19:34:00,
2013-01-20 13:39:00,67.4,53.5,30.10,SW,230,0.1,1.2,61,0.00,CLR,,0.00,WeatherDisplay:10.37,2013-01-20 19:39:00,
2013-01-20 13:44:00,67.9,54.0,30.10,SW,232,0.6,3.5,61,0.00,CLR,,0.00,WeatherDisplay:10.37,2013-01-20 19:44:00,
2013-01-20 13:49:00,68.3,53.4,30.10,WSW,239,0.3,2.3,59,0.00,CLR,,0.00,WeatherDisplay:10.37,2013-01-20 19:49:00,
2013-01-20 13:54:00,68.6,54.2,30.10,SW,217,0.3,2.3,60,0.00,CLR,,0.00,WeatherDisplay:10.37,2013-01-20 19:54:00,
2013-01-20 13:59:00,69.0,53.1,30.09,South,184,1.5,3.5,57,0.00,CLR,,0.00,WeatherDisplay:10.37,2013-01-20 19:59:00,
2013-01-20 14:04:00,69.3,52.4,30.09,SSW,211,0.8,2.3,55,0.00,CLR,,0.00,WeatherDisplay:10.37,2013-01-20 20:04:00,
2013-01-20 14:09:00,69.6,52.2,30.09,SSW,201,0.4,2.3,54,0.00,CLR,,0.00,WeatherDisplay:10.37,2013-01-20 20:09:00,
2013-01-20 14:14:00,70.0,52.6,30.09,NW,307,0.0,0.0,54,0.00,CLR,,0.00,WeatherDisplay:10.37,2013-01-20 20:14:00,
2013-01-20 14:19:00,70.4,52.4,30.09,SSW,204,0.3,2.3,53,0.00,CLR,,0.00,WeatherDisplay:10.37,2013-01-20 20:19:00,
2013-01-20 14:24:00,70.8,53.3,30.08,NW,313,0.1,1.2,54,0.00,CLR,,0.00,WeatherDisplay:10.37,2013-01-20 20:24:00,
2013-01-20 14:29:00,71.3,53.3,30.08,WSW,253,0.1,1.2,53,0.00,CLR,,0.00,WeatherDisplay:10.37,2013-01-20 20:29:00,
2013-01-20 14:34:00,71.7,52.6,30.08,SSW,205,0.4,2.0,51,0.00,CLR,,0.00,WeatherDisplay:10.37,2013-01-20 20:34:00,
2013-01-20 14:39:00,72.1,51.9,30.08,SW,221,1.9,5.8,49,0.00,CLR,,0.00,WeatherDisplay:10.37,2013-01-20 20:39:00,
2013-01-20 14:44:00,72.2,51.4,30.07,SSW,195,0.1,1.2,48,0.00,CLR,,0.00,WeatherDisplay:10.37,2013-01-20 20:44:00,
2013-01-20 14:49:00,72.0,50.7,30.07,SSE,159,0.0,0.0,47,0.00,CLR,,0.00,WeatherDisplay:10.37,2013-01-20 20:49:00,
2013-01-20 14:54:00,72.1,50.8,30.07,NW,317,0.8,3.5,47,0.00,CLR,,0.00,WeatherDisplay:10.37,2013-01-20 20:54:00,
2013-01-20 14:59:00,72.1,50.2,30.07,SSW,207,1.0,2.3,46,0.00,CLR,,0.00,WeatherDisplay:10.37,2013-01-20 20:59:00,
2013-01-20 15:04:00,72.1,50.2,30.07,South,181,0.4,1.2,46,0.00,CLR,,0.00,WeatherDisplay:10.37,2013-01-20 21:04:00,
2013-01-20 15:09:00,72.1,50.2,30.07,SSW,194,0.0,1.2,46,0.00,CLR,,0.00,WeatherDisplay:10.37,2013-01-20 21:09:00,
2013-01-20 15:14:00,72.2,50.3,30.07,SSW,202,0.0,0.0,46,0.00,CLR,,0.00,WeatherDisplay:10.37,2013-01-20 21:14:00,
2013-01-20 15:19:00,72.4,50.4,30.07,West,261,0.3,2.0,46,0.00,CLR,,0.00,WeatherDisplay:10.37,2013-01-20 21:19:00,
2013-01-20 15:24:00,72.1,50.2,30.07,West,269,1.8,4.0,46,0.00,CLR,,0.00,WeatherDisplay:10.37,2013-01-20 21:24:00,
2013-01-20 15:29:00,71.9,49.4,30.07,SW,222,0.0,0.0,45,0.00,CLR,,0.00,WeatherDisplay:10.37,2013-01-20 21:29:00,
2013-01-20 15:34:00,71.9,49.4,30.07,South,178,0.3,1.2,45,0.00,CLR,,0.00,WeatherDisplay:10.37,2013-01-20 21:34:00,
2013-01-20 15:39:00,71.5,49.6,30.07,South,177,0.0,1.2,46,0.00,CLR,,0.00,WeatherDisplay:10.37,2013-01-20 21:39:00,
2013-01-20 15:44:00,71.3,50.0,30.07,SE,132,0.2,2.3,47,0.00,CLR,,0.00,WeatherDisplay:10.37,2013-01-20 21:44:00,
2013-01-20 15:49:00,71.2,49.4,30.07,SW,234,1.1,3.5,46,0.00,CLR,,0.00,WeatherDisplay:10.37,2013-01-20 21:49:00,
2013-01-20 15:54:00,71.6,49.1,30.07,WSW,242,0.2,3.5,45,0.00,CLR,,0.00,WeatherDisplay:10.37,2013-01-20 21:54:00,
2013-01-20 15:59:00,71.8,48.7,30.07,WNW,283,1.1,1.2,44,0.00,CLR,,0.00,WeatherDisplay:10.37,2013-01-20 21:59:00,
2013-01-20 16:04:00,71.4,48.9,30.07,West,261,0.0,3.5,45,0.00,CLR,,0.00,WeatherDisplay:10.37,2013-01-20 22:04:00,
2013-01-20 16:09:00,71.2,48.8,30.07,SW,225,1.0,3.0,45,0.00,CLR,,0.00,WeatherDisplay:10.37,2013-01-20 22:09:00,
2013-01-20 16:14:00,71.0,48.6,30.07,SW,221,0.5,4.0,45,0.00,CLR,,0.00,WeatherDisplay:10.37,2013-01-20 22:14:00,
2013-01-20 16:19:00,70.9,48.5,30.07,SSW,198,0.4,2.0,45,0.00,CLR,,0.00,WeatherDisplay:10.37,2013-01-20 22:19:00,
2013-01-20 16:24:00,70.7,49.5,30.07,SW,218,0.0,0.0,47,0.00,CLR,,0.00,WeatherDisplay:10.37,2013-01-20 22:24:00,
2013-01-20 16:29:00,70.6,48.8,30.07,SW,214,0.1,0.0,46,0.00,CLR,,0.00,WeatherDisplay:10.37,2013-01-20 22:29:00,
2013-01-20 16:34:00,70.4,48.6,30.07,NW,306,0.0,0.0,46,0.00,CLR,,0.00,WeatherDisplay:10.37,2013-01-20 22:34:00,
2013-01-20 16:39:00,70.3,49.1,30.07,West,261,0.0,0.0,47,0.00,CLR,,0.00,WeatherDisplay:10.37,2013-01-20 22:39:00,
2013-01-20 16:44:00,69.9,48.7,30.07,SSW,199,0.0,1.2,47,0.00,CLR,,0.00,WeatherDisplay:10.37,2013-01-20 22:44:00,
2013-01-20 16:49:00,69.7,49.1,30.07,WNW,289,0.1,2.0,48,0.00,CLR,,0.00,WeatherDisplay:10.37,2013-01-20 22:49:00,
2013-01-20 16:54:00,69.4,49.4,30.07,WNW,298,0.1,2.3,49,0.00,CLR,,0.00,WeatherDisplay:10.37,2013-01-20 22:54:00,
2013-01-20 16:59:00,69.1,49.7,30.07,WNW,298,0.0,0.0,50,0.00,CLR,,0.00,WeatherDisplay:10.37,2013-01-20 22:59:00,
2013-01-20 17:04:00,68.9,49.5,30.06,WNW,296,0.0,0.0,50,0.00,CLR,,0.00,WeatherDisplay:10.37,2013-01-20 23:04:00,
2013-01-20 17:09:00,68.7,49.3,30.06,WNW,296,0.0,0.0,50,0.00,CLR,,0.00,WeatherDisplay:10.37,2013-01-20 23:09:00,
2013-01-20 17:14:00,68.6,49.7,30.07,WNW,296,0.0,0.0,51,0.00,CLR,,0.00,WeatherDisplay:10.37,2013-01-20 23:14:00,
2013-01-20 17:19:00,68.3,50.0,30.07,WNW,296,0.0,0.0,52,0.00,CLR,,0.00,WeatherDisplay:10.37,2013-01-20 23:19:00,
2013-01-20 17:24:00,68.1,49.8,30.07,WNW,296,0.0,0.0,52,0.00,CLR,,0.00,WeatherDisplay:10.37,2013-01-20 23:24:00,
2013-01-20 17:29:00,67.8,50.0,30.07,WNW,296,0.0,0.0,53,0.00,CLR,,0.00,WeatherDisplay:10.37,2013-01-20 23:29:00,
2013-01-20 17:34:00,67.5,50.3,30.07,WNW,296,0.0,0.0,54,0.00,CLR,,0.00,WeatherDisplay:10.37,2013-01-20 23:34:00,
2013-01-20 17:39:00,67.2,50.5,30.06,WNW,296,0.0,0.0,55,0.00,CLR,,0.00,WeatherDisplay:10.37,2013-01-20 23:39:00,
2013-01-20 17:44:00,66.9,50.2,30.07,WNW,296,0.0,0.0,55,0.00,CLR,,0.00,WeatherDisplay:10.37,2013-01-20 23:44:00,
2013-01-20 17:49:00,66.5,50.3,30.06,WNW,296,0.0,0.0,56,0.00,CLR,,0.00,WeatherDisplay:10.37,2013-01-20 23:49:00,
2013-01-20 17:54:00,66.0,49.8,30.06,WNW,296,0.0,0.0,56,0.00,CLR,,0.00,WeatherDisplay:10.37,2013-01-20 23:54:00,
2013-01-20 17:59:00,65.6,50.0,30.06,WNW,296,0.0,0.0,57,0.00,CLR,,0.00,WeatherDisplay:10.37,2013-01-20 23:59:00,
2013-01-20 18:04:00,65.1,50.0,30.07,WNW,296,0.0,0.0,58,0.00,CLR,,0.00,WeatherDisplay:10.37,2013-01-21 00:04:00,
2013-01-20 18:09:00,64.6,49.5,30.07,WNW,296,0.0,0.0,58,0.00,CLR,,0.00,WeatherDisplay:10.37,2013-01-21 00:09:00,
2013-01-20 18:14:00,64.0,49.4,30.07,WNW,296,0.0,0.0,59,0.00,CLR,,0.00,WeatherDisplay:10.37,2013-01-21 00:14:00,
2013-01-20 18:19:00,63.4,49.3,30.07,WNW,296,0.0,0.0,60,0.00,CLR,,0.00,WeatherDisplay:10.37,2013-01-21 00:19:00,
2013-01-20 18:24:00,62.7,49.1,30.07,WNW,296,0.0,0.0,61,0.00,CLR,,0.00,WeatherDisplay:10.37,2013-01-21 00:24:00,
2013-01-20 18:29:00,61.9,48.7,30.07,WNW,296,0.0,0.0,62,0.00,CLR,,0.00,WeatherDisplay:10.37,2013-01-21 00:29:00,
2013-01-20 18:34:00,61.3,48.6,30.07,WNW,296,0.0,0.0,63,0.00,CLR,,0.00,WeatherDisplay:10.37,2013-01-21 00:34:00,
2013-01-20 18:39:00,60.6,48.4,30.08,WNW,296,0.0,0.0,64,0.00,CLR,,0.00,WeatherDisplay:10.37,2013-01-21 00:39:00,
2013-01-20 18:44:00,60.1,47.9,30.07,WNW,296,0.0,0.0,64,0.00,CLR,,0.00,WeatherDisplay:10.37,2013-01-21 00:44:00,
2013-01-20 18:49:00,59.5,47.7,30.07,WNW,296,0.0,0.0,65,0.00,CLR,,0.00,WeatherDisplay:10.37,2013-01-21 00:49:00,
2013-01-20 18:54:00,58.8,47.5,30.07,WNW,296,0.0,0.0,66,0.00,CLR,,0.00,WeatherDisplay:10.37,2013-01-21 00:54:00,
2013-01-20 18:59:00,58.2,47.3,30.07,WNW,296,0.0,0.0,67,0.00,CLR,,0.00,WeatherDisplay:10.37,2013-01-21 00:59:00,
2013-01-20 19:04:00,57.6,47.1,30.07,WNW,296,0.0,0.0,68,0.00,CLR,,0.00,WeatherDisplay:10.37,2013-01-21 01:04:00,
2013-01-20 19:09:00,56.9,46.8,30.08,WNW,296,0.0,0.0,69,0.00,CLR,,0.00,WeatherDisplay:10.37,2013-01-21 01:09:00,
2013-01-20 19:14:00,56.5,46.8,30.08,WNW,296,0.0,0.0,70,0.00,CLR,,0.00,WeatherDisplay:10.37,2013-01-21 01:14:00,
2013-01-20 19:19:00,56.0,46.7,30.08,WNW,296,0.0,0.0,71,0.00,CLR,,0.00,WeatherDisplay:10.37,2013-01-21 01:19:00,
2013-01-20 19:24:00,55.6,46.3,30.07,WNW,296,0.0,0.0,71,0.00,CLR,,0.00,WeatherDisplay:10.37,2013-01-21 01:24:00,
2013-01-20 19:29:00,55.1,46.6,30.07,WNW,296,0.0,0.0,73,0.00,CLR,,0.00,WeatherDisplay:10.37,2013-01-21 01:29:00,
2013-01-20 19:34:00,54.7,46.2,30.08,WNW,296,0.0,0.0,73,0.00,CLR,,0.00,WeatherDisplay:10.37,2013-01-21 01:34:00,
2013-01-20 19:39:00,54.2,46.1,30.08,WNW,296,0.0,0.0,74,0.00,CLR,,0.00,WeatherDisplay:10.37,2013-01-21 01:39:00,
2013-01-20 19:44:00,53.8,45.7,30.08,WNW,296,0.0,0.0,74,0.00,CLR,,0.00,WeatherDisplay:10.37,2013-01-21 01:44:00,
2013-01-20 19:49:00,53.5,45.8,30.08,WNW,296,0.0,0.0,75,0.00,CLR,,0.00,WeatherDisplay:10.37,2013-01-21 01:49:00,
2013-01-20 19:54:00,53.2,45.5,30.08,WNW,296,0.0,0.0,75,0.00,CLR,,0.00,WeatherDisplay:10.37,2013-01-21 01:54:00,
2013-01-20 19:59:00,52.9,45.5,30.08,WNW,296,0.0,0.0,76,0.00,CLR,,0.00,WeatherDisplay:10.37,2013-01-21 01:59:00,
2013-01-20 20:04:00,52.6,45.6,30.08,WNW,296,0.0,0.0,77,0.00,CLR,,0.00,WeatherDisplay:10.37,2013-01-21 02:04:00,
2013-01-20 20:09:00,52.2,45.2,30.08,WNW,296,0.0,0.0,77,0.00,CLR,,0.00,WeatherDisplay:10.37,2013-01-21 02:09:00,
2013-01-20 20:14:00,51.9,45.3,30.08,WNW,296,0.0,0.0,78,0.00,CLR,,0.00,WeatherDisplay:10.37,2013-01-21 02:14:00,
2013-01-20 20:19:00,51.6,45.0,30.08,WNW,296,0.0,0.0,78,0.00,CLR,,0.00,WeatherDisplay:10.37,2013-01-21 02:19:00,
2013-01-20 20:24:00,51.4,45.1,30.08,WNW,296,0.0,0.0,79,0.00,CLR,,0.00,WeatherDisplay:10.37,2013-01-21 02:24:00,
2013-01-20 20:29:00,51.1,44.8,30.08,WNW,296,0.0,0.0,79,0.00,CLR,,0.00,WeatherDisplay:10.37,2013-01-21 02:29:00,
2013-01-20 20:34:00,50.8,44.9,30.09,WNW,296,0.0,0.0,80,0.00,CLR,,0.00,WeatherDisplay:10.37,2013-01-21 02:34:00,
2013-01-20 20:39:00,50.5,44.6,30.09,WNW,296,0.0,0.0,80,0.00,CLR,,0.00,WeatherDisplay:10.37,2013-01-21 02:39:00,
2013-01-20 20:44:00,50.3,44.4,30.09,WNW,296,0.0,0.0,80,0.00,CLR,,0.00,WeatherDisplay:10.37,2013-01-21 02:44:00,
2013-01-20 20:49:00,50.0,44.4,30.09,WNW,296,0.0,0.0,81,0.00,CLR,,0.00,WeatherDisplay:10.37,2013-01-21 02:49:00,
2013-01-20 20:54:00,49.8,44.2,30.09,WNW,296,0.0,0.0,81,0.00,CLR,,0.00,WeatherDisplay:10.37,2013-01-21 02:54:00,
2013-01-20 20:59:00,49.7,44.4,30.09,WNW,296,0.0,0.0,82,0.00,CLR,,0.00,WeatherDisplay:10.37,2013-01-21 02:59:00,
2013-01-20 21:04:00,49.5,44.6,30.09,WNW,296,0.0,0.0,83,0.00,CLR,,0.00,WeatherDisplay:10.37,2013-01-21 03:04:00,
2013-01-20 21:09:00,49.4,44.8,30.09,WNW,296,0.0,0.0,84,0.00,CLR,,0.00,WeatherDisplay:10.37,2013-01-21 03:09:00,
2013-01-20 21:14:00,49.3,44.7,30.09,WNW,296,0.0,0.0,84,0.00,CLR,,0.00,WeatherDisplay:10.37,2013-01-21 03:14:00,
2013-01-20 21:19:00,49.2,44.6,30.09,WNW,296,0.0,0.0,84,0.00,CLR,,0.00,WeatherDisplay:10.37,2013-01-21 03:19:00,
2013-01-20 21:24:00,49.1,44.2,30.09,WNW,296,0.0,0.0,83,0.00,CLR,,0.00,WeatherDisplay:10.37,2013-01-21 03:24:00,
2013-01-20 21:29:00,48.9,44.0,30.10,WNW,296,0.0,0.0,83,0.00,CLR,,0.00,WeatherDisplay:10.37,2013-01-21 03:29:00,
2013-01-20 21:34:00,48.7,43.8,30.10,WNW,296,0.0,0.0,83,0.00,CLR,,0.00,WeatherDisplay:10.37,2013-01-21 03:34:00,
2013-01-20 21:39:00,48.6,43.7,30.10,WNW,296,0.0,0.0,83,0.00,CLR,,0.00,WeatherDisplay:10.37,2013-01-21 03:39:00,
2013-01-20 21:44:00,48.5,43.6,30.09,WNW,296,0.0,0.0,83,0.00,CLR,,0.00,WeatherDisplay:10.37,2013-01-21 03:44:00,
2013-01-20 21:49:00,48.3,43.4,30.09,WNW,296,0.0,0.0,83,0.00,CLR,,0.00,WeatherDisplay:10.37,2013-01-21 03:49:00,
2013-01-20 21:54:00,48.1,43.2,30.10,WNW,296,0.0,0.0,83,0.00,CLR,,0.00,WeatherDisplay:10.37,2013-01-21 03:54:00,
2013-01-20 21:59:00,47.9,43.0,30.10,WNW,296,0.0,0.0,83,0.00,CLR,,0.00,WeatherDisplay:10.37,2013-01-21 03:59:00,
2013-01-20 22:04:00,47.7,42.8,30.10,WNW,296,0.0,0.0,83,0.00,CLR,,0.00,WeatherDisplay:10.37,2013-01-21 04:04:00,
2013-01-20 22:09:00,47.6,42.7,30.10,WNW,296,0.0,0.0,83,0.00,CLR,,0.00,WeatherDisplay:10.37,2013-01-21 04:09:00,
2013-01-20 22:14:00,47.4,42.8,30.10,WNW,296,0.0,0.0,84,0.00,CLR,,0.00,WeatherDisplay:10.37,2013-01-21 04:14:00,
2013-01-20 22:19:00,47.2,42.9,30.11,WNW,296,0.0,0.0,85,0.00,CLR,,0.00,WeatherDisplay:10.37,2013-01-21 04:19:00,
2013-01-20 22:24:00,47.1,43.1,30.11,WNW,296,0.0,0.0,86,0.00,CLR,,0.00,WeatherDisplay:10.37,2013-01-21 04:24:00,
2013-01-20 22:29:00,47.0,43.3,30.11,WNW,296,0.0,0.0,87,0.00,CLR,,0.00,WeatherDisplay:10.37,2013-01-21 04:29:00,
2013-01-20 22:34:00,47.0,43.3,30.11,WNW,296,0.0,0.0,87,0.00,CLR,,0.00,WeatherDisplay:10.37,2013-01-21 04:34:00,
2013-01-20 22:39:00,46.8,42.8,30.11,WNW,296,0.0,0.0,86,0.00,CLR,,0.00,WeatherDisplay:10.37,2013-01-21 04:39:00,
2013-01-20 22:44:00,46.5,42.5,30.11,WNW,296,0.0,0.0,86,0.00,CLR,,0.00,WeatherDisplay:10.37,2013-01-21 04:44:00,
2013-01-20 22:49:00,46.4,42.4,30.12,WNW,296,0.0,0.0,86,0.00,CLR,,0.00,WeatherDisplay:10.37,2013-01-21 04:49:00,
2013-01-20 22:54:00,46.3,42.3,30.12,WNW,296,0.0,0.0,86,0.00,CLR,,0.00,WeatherDisplay:10.37,2013-01-21 04:54:00,
2013-01-20 22:59:00,46.1,42.1,30.12,WNW,296,0.0,0.0,86,0.00,CLR,,0.00,WeatherDisplay:10.37,2013-01-21 04:59:00,
2013-01-20 23:00:00,46.0,42.0,30.12,WNW,296,0.0,0.0,86,0.00,CLR,,0.00,WeatherDisplay:10.37,2013-01-21 05:00:00,
2013-01-20 23:03:00,45.9,41.9,30.12,WNW,296,0.0,0.0,86,0.00,CLR,,0.00,WeatherDisplay:10.37,2013-01-21 05:03:00,
2013-01-20 23:08:00,45.8,41.9,30.12,WNW,296,0.0,0.0,86,0.00,CLR,,0.00,WeatherDisplay:10.37,2013-01-21 05:08:00,
2013-01-20 23:13:00,45.6,42.0,30.11,WNW,296,0.0,0.0,87,0.00,CLR,,0.00,WeatherDisplay:10.37,2013-01-21 05:13:00,
2013-01-20 23:18:00,45.4,41.8,30.12,WNW,296,0.0,0.0,87,0.00,CLR,,0.00,WeatherDisplay:10.37,2013-01-21 05:18:00,
2013-01-20 23:23:00,45.2,41.6,30.12,WNW,296,0.0,0.0,87,0.00,CLR,,0.00,WeatherDisplay:10.37,2013-01-21 05:23:00,
2013-01-20 23:28:00,45.1,41.5,30.12,WNW,296,0.0,0.0,87,0.00,CLR,,0.00,WeatherDisplay:10.37,2013-01-21 05:28:00,
2013-01-20 23:33:00,45.0,41.4,30.12,WNW,296,0.0,0.0,87,0.00,CLR,,0.00,WeatherDisplay:10.37,2013-01-21 05:33:00,
2013-01-20 23:38:00,44.8,41.5,30.11,WNW,296,0.0,0.0,88,0.00,CLR,,0.00,WeatherDisplay:10.37,2013-01-21 05:38:00,
2013-01-20 23:43:00,44.7,41.4,30.11,WNW,296,0.0,0.0,88,0.00,CLR,,0.00,WeatherDisplay:10.37,2013-01-21 05:43:00,
2013-01-20 23:48:00,44.6,41.3,30.11,WNW,296,0.0,0.0,88,0.00,CLR,,0.00,WeatherDisplay:10.37,2013-01-21 05:48:00,
2013-01-20 23:53:00,44.6,41.6,30.11,WNW,296,0.0,0.0,89,0.00,CLR,,0.00,WeatherDisplay:10.37,2013-01-21 05:53:00,
2013-01-20 23:58:00,44.6,41.6,30.11,WNW,296,0.0,0.0,89,0.00,CLR,,0.00,WeatherDisplay:10.37,2013-01-21 05:58:00,